sensor_id;sensor_type;location;lat;lon;timestamp;P1;durP1;ratioP1;P2;durP2;ratioP2
50363;SDS011;36272;59.400;17.982;2023-11-19T00:01:32;6.82;;;4.78;;
50363;SDS011;36272;59.400;17.982;2023-11-19T00:06:34;6.75;;;4.20;;
50363;SDS011;36272;59.400;17.982;2023-11-19T00:11:35;6.53;;;3.50;;
50363;SDS011;36272;59.400;17.982;2023-11-19T00:16:37;5.05;;;3.63;;
50363;SDS011;36272;59.400;17.982;2023-11-19T00:21:39;5.90;;;4.05;;
50363;SDS011;36272;59.400;17.982;2023-11-19T00:26:42;7.10;;;3.75;;
50363;SDS011;36272;59.400;17.982;2023-11-19T00:31:44;6.45;;;3.72;;
50363;SDS011;36272;59.400;17.982;2023-11-19T00:36:45;5.60;;;3.78;;
50363;SDS011;36272;59.400;17.982;2023-11-19T00:41:47;5.88;;;3.72;;
50363;SDS011;36272;59.400;17.982;2023-11-19T00:46:49;6.18;;;4.10;;
50363;SDS011;36272;59.400;17.982;2023-11-19T00:51:50;5.07;;;3.60;;
50363;SDS011;36272;59.400;17.982;2023-11-19T00:56:52;3.92;;;3.15;;
50363;SDS011;36272;59.400;17.982;2023-11-19T01:01:54;6.35;;;3.97;;
50363;SDS011;36272;59.400;17.982;2023-11-19T01:06:57;7.85;;;4.38;;
50363;SDS011;36272;59.400;17.982;2023-11-19T01:11:59;9.40;;;4.68;;
50363;SDS011;36272;59.400;17.982;2023-11-19T01:17:01;6.97;;;4.40;;
50363;SDS011;36272;59.400;17.982;2023-11-19T01:22:03;6.80;;;4.35;;
50363;SDS011;36272;59.400;17.982;2023-11-19T01:27:05;6.43;;;4.32;;
50363;SDS011;36272;59.400;17.982;2023-11-19T01:32:06;5.18;;;3.95;;
50363;SDS011;36272;59.400;17.982;2023-11-19T01:37:08;8.35;;;4.15;;
50363;SDS011;36272;59.400;17.982;2023-11-19T01:42:11;9.05;;;4.53;;
50363;SDS011;36272;59.400;17.982;2023-11-19T01:47:16;5.70;;;3.78;;
50363;SDS011;36272;59.400;17.982;2023-11-19T01:52:19;7.80;;;4.13;;
50363;SDS011;36272;59.400;17.982;2023-11-19T01:57:22;11.45;;;3.88;;
50363;SDS011;36272;59.400;17.982;2023-11-19T02:02:24;9.68;;;4.55;;
50363;SDS011;36272;59.400;17.982;2023-11-19T02:07:27;6.78;;;4.05;;
50363;SDS011;36272;59.400;17.982;2023-11-19T02:12:29;9.93;;;3.88;;
50363;SDS011;36272;59.400;17.982;2023-11-19T02:17:31;6.80;;;3.40;;
50363;SDS011;36272;59.400;17.982;2023-11-19T02:22:32;4.75;;;3.50;;
50363;SDS011;36272;59.400;17.982;2023-11-19T02:27:51;5.80;;;3.60;;
50363;SDS011;36272;59.400;17.982;2023-11-19T02:32:56;5.30;;;3.30;;
50363;SDS011;36272;59.400;17.982;2023-11-19T02:43:25;5.50;;;3.60;;
50363;SDS011;36272;59.400;17.982;2023-11-19T02:48:27;4.18;;;3.30;;
50363;SDS011;36272;59.400;17.982;2023-11-19T02:53:29;5.35;;;3.55;;
50363;SDS011;36272;59.400;17.982;2023-11-19T02:58:31;5.15;;;3.28;;
50363;SDS011;36272;59.400;17.982;2023-11-19T03:03:33;5.78;;;3.72;;
50363;SDS011;36272;59.400;17.982;2023-11-19T03:08:39;4.80;;;3.50;;
50363;SDS011;36272;59.400;17.982;2023-11-19T03:13:41;9.10;;;4.15;;
50363;SDS011;36272;59.400;17.982;2023-11-19T03:18:42;6.07;;;3.53;;
50363;SDS011;36272;59.400;17.982;2023-11-19T03:23:44;5.38;;;3.60;;
50363;SDS011;36272;59.400;17.982;2023-11-19T03:28:46;5.68;;;3.65;;
50363;SDS011;36272;59.400;17.982;2023-11-19T03:33:47;7.30;;;4.20;;
50363;SDS011;36272;59.400;17.982;2023-11-19T03:38:49;7.35;;;3.50;;
50363;SDS011;36272;59.400;17.982;2023-11-19T03:43:50;6.20;;;4.00;;
50363;SDS011;36272;59.400;17.982;2023-11-19T03:48:52;6.45;;;3.42;;
50363;SDS011;36272;59.400;17.982;2023-11-19T03:53:53;6.18;;;3.47;;
50363;SDS011;36272;59.400;17.982;2023-11-19T03:58:55;4.28;;;2.88;;
50363;SDS011;36272;59.400;17.982;2023-11-19T04:03:56;7.13;;;3.13;;
50363;SDS011;36272;59.400;17.982;2023-11-19T04:08:58;5.03;;;3.05;;
50363;SDS011;36272;59.400;17.982;2023-11-19T04:14:00;6.78;;;2.90;;
50363;SDS011;36272;59.400;17.982;2023-11-19T04:19:01;6.47;;;2.85;;
50363;SDS011;36272;59.400;17.982;2023-11-19T04:24:03;3.63;;;2.60;;
50363;SDS011;36272;59.400;17.982;2023-11-19T04:29:05;7.68;;;3.85;;
50363;SDS011;36272;59.400;17.982;2023-11-19T04:34:07;5.95;;;3.58;;
50363;SDS011;36272;59.400;17.982;2023-11-19T04:39:09;3.97;;;3.05;;
50363;SDS011;36272;59.400;17.982;2023-11-19T04:44:13;5.78;;;3.45;;
50363;SDS011;36272;59.400;17.982;2023-11-19T04:49:14;6.68;;;3.47;;
50363;SDS011;36272;59.400;17.982;2023-11-19T04:54:17;6.28;;;3.60;;
50363;SDS011;36272;59.400;17.982;2023-11-19T04:59:19;5.20;;;3.53;;
50363;SDS011;36272;59.400;17.982;2023-11-19T05:04:21;6.95;;;3.65;;
50363;SDS011;36272;59.400;17.982;2023-11-19T05:09:22;5.40;;;3.72;;
50363;SDS011;36272;59.400;17.982;2023-11-19T05:14:24;13.68;;;3.15;;
50363;SDS011;36272;59.400;17.982;2023-11-19T05:19:26;9.23;;;3.90;;
50363;SDS011;36272;59.400;17.982;2023-11-19T05:24:27;10.65;;;3.40;;
50363;SDS011;36272;59.400;17.982;2023-11-19T05:29:29;5.88;;;3.63;;
50363;SDS011;36272;59.400;17.982;2023-11-19T05:34:30;6.85;;;4.03;;
50363;SDS011;36272;59.400;17.982;2023-11-19T05:39:32;5.18;;;3.40;;
50363;SDS011;36272;59.400;17.982;2023-11-19T05:44:34;5.40;;;3.20;;
50363;SDS011;36272;59.400;17.982;2023-11-19T05:49:36;8.88;;;3.40;;
50363;SDS011;36272;59.400;17.982;2023-11-19T05:54:38;6.82;;;3.33;;
50363;SDS011;36272;59.400;17.982;2023-11-19T05:59:39;5.70;;;3.20;;
50363;SDS011;36272;59.400;17.982;2023-11-19T06:04:41;6.80;;;3.08;;
50363;SDS011;36272;59.400;17.982;2023-11-19T06:09:45;7.38;;;3.60;;
50363;SDS011;36272;59.400;17.982;2023-11-19T06:14:46;7.10;;;3.45;;
50363;SDS011;36272;59.400;17.982;2023-11-19T06:19:48;9.13;;;4.07;;
50363;SDS011;36272;59.400;17.982;2023-11-19T06:24:50;5.53;;;3.33;;
50363;SDS011;36272;59.400;17.982;2023-11-19T06:29:51;7.30;;;4.00;;
50363;SDS011;36272;59.400;17.982;2023-11-19T06:34:53;7.25;;;3.60;;
50363;SDS011;36272;59.400;17.982;2023-11-19T06:39:54;6.35;;;3.80;;
50363;SDS011;36272;59.400;17.982;2023-11-19T06:44:56;8.70;;;3.63;;
50363;SDS011;36272;59.400;17.982;2023-11-19T06:50:00;6.50;;;3.97;;
50363;SDS011;36272;59.400;17.982;2023-11-19T06:55:02;6.82;;;3.85;;
50363;SDS011;36272;59.400;17.982;2023-11-19T07:00:05;7.85;;;3.70;;
50363;SDS011;36272;59.400;17.982;2023-11-19T07:05:07;5.47;;;3.50;;
50363;SDS011;36272;59.400;17.982;2023-11-19T07:10:09;6.20;;;3.60;;
50363;SDS011;36272;59.400;17.982;2023-11-19T07:15:11;8.30;;;3.95;;
50363;SDS011;36272;59.400;17.982;2023-11-19T07:20:13;6.60;;;3.75;;
50363;SDS011;36272;59.400;17.982;2023-11-19T07:25:16;7.57;;;4.35;;
50363;SDS011;36272;59.400;17.982;2023-11-19T07:30:18;8.25;;;3.92;;
50363;SDS011;36272;59.400;17.982;2023-11-19T07:35:20;7.00;;;4.13;;
50363;SDS011;36272;59.400;17.982;2023-11-19T07:40:25;10.93;;;4.80;;
50363;SDS011;36272;59.400;17.982;2023-11-19T07:45:26;10.20;;;6.07;;
50363;SDS011;36272;59.400;17.982;2023-11-19T07:50:28;7.50;;;4.35;;
50363;SDS011;36272;59.400;17.982;2023-11-19T07:55:33;11.18;;;4.82;;
50363;SDS011;36272;59.400;17.982;2023-11-19T08:00:35;8.07;;;4.80;;
50363;SDS011;36272;59.400;17.982;2023-11-19T08:05:36;11.02;;;5.22;;
50363;SDS011;36272;59.400;17.982;2023-11-19T08:10:38;8.70;;;4.78;;
50363;SDS011;36272;59.400;17.982;2023-11-19T08:15:41;11.80;;;4.20;;
50363;SDS011;36272;59.400;17.982;2023-11-19T08:20:42;6.18;;;3.53;;
50363;SDS011;36272;59.400;17.982;2023-11-19T08:25:46;8.63;;;4.53;;
50363;SDS011;36272;59.400;17.982;2023-11-19T08:30:47;9.15;;;3.85;;
50363;SDS011;36272;59.400;17.982;2023-11-19T08:35:49;7.45;;;4.20;;
50363;SDS011;36272;59.400;17.982;2023-11-19T08:40:51;8.55;;;4.63;;
50363;SDS011;36272;59.400;17.982;2023-11-19T08:45:53;7.80;;;4.38;;
50363;SDS011;36272;59.400;17.982;2023-11-19T08:50:55;7.95;;;4.93;;
50363;SDS011;36272;59.400;17.982;2023-11-19T08:55:56;10.55;;;4.93;;
50363;SDS011;36272;59.400;17.982;2023-11-19T09:00:58;12.65;;;5.30;;
50363;SDS011;36272;59.400;17.982;2023-11-19T09:06:00;8.10;;;4.93;;
50363;SDS011;36272;59.400;17.982;2023-11-19T09:11:06;10.25;;;5.18;;
50363;SDS011;36272;59.400;17.982;2023-11-19T09:16:08;10.40;;;6.03;;
50363;SDS011;36272;59.400;17.982;2023-11-19T09:21:13;17.13;;;5.63;;
50363;SDS011;36272;59.400;17.982;2023-11-19T09:26:15;14.88;;;5.75;;
50363;SDS011;36272;59.400;17.982;2023-11-19T09:31:17;10.02;;;5.72;;
50363;SDS011;36272;59.400;17.982;2023-11-19T09:36:19;10.30;;;5.68;;
50363;SDS011;36272;59.400;17.982;2023-11-19T09:41:21;11.45;;;5.35;;
50363;SDS011;36272;59.400;17.982;2023-11-19T09:46:22;10.73;;;5.50;;
50363;SDS011;36272;59.400;17.982;2023-11-19T09:51:25;9.02;;;5.50;;
50363;SDS011;36272;59.400;17.982;2023-11-19T09:56:30;9.40;;;5.60;;
50363;SDS011;36272;59.400;17.982;2023-11-19T10:01:32;8.05;;;5.10;;
50363;SDS011;36272;59.400;17.982;2023-11-19T10:06:35;9.20;;;5.32;;
50363;SDS011;36272;59.400;17.982;2023-11-19T10:11:36;7.43;;;5.15;;
50363;SDS011;36272;59.400;17.982;2023-11-19T10:16:38;8.80;;;5.32;;
50363;SDS011;36272;59.400;17.982;2023-11-19T10:21:40;7.85;;;5.20;;
50363;SDS011;36272;59.400;17.982;2023-11-19T10:26:42;8.00;;;5.28;;
50363;SDS011;36272;59.400;17.982;2023-11-19T10:31:55;10.85;;;5.15;;
50363;SDS011;36272;59.400;17.982;2023-11-19T10:36:57;10.70;;;5.25;;
50363;SDS011;36272;59.400;17.982;2023-11-19T10:42:15;6.88;;;4.45;;
50363;SDS011;36272;59.400;17.982;2023-11-19T10:47:18;6.25;;;4.30;;
50363;SDS011;36272;59.400;17.982;2023-11-19T10:52:20;7.10;;;4.45;;
50363;SDS011;36272;59.400;17.982;2023-11-19T10:57:22;8.13;;;4.65;;
50363;SDS011;36272;59.400;17.982;2023-11-19T11:02:29;7.38;;;4.10;;
50363;SDS011;36272;59.400;17.982;2023-11-19T11:07:36;9.15;;;4.15;;
50363;SDS011;36272;59.400;17.982;2023-11-19T11:12:41;7.38;;;4.47;;
50363;SDS011;36272;59.400;17.982;2023-11-19T11:17:43;9.18;;;4.72;;
50363;SDS011;36272;59.400;17.982;2023-11-19T11:22:51;6.35;;;4.38;;
50363;SDS011;36272;59.400;17.982;2023-11-19T11:38:58;7.22;;;4.30;;
50363;SDS011;36272;59.400;17.982;2023-11-19T11:44:01;8.10;;;4.45;;
50363;SDS011;36272;59.400;17.982;2023-11-19T11:49:04;6.95;;;4.18;;
50363;SDS011;36272;59.400;17.982;2023-11-19T11:54:14;8.23;;;5.03;;
50363;SDS011;36272;59.400;17.982;2023-11-19T11:59:31;6.15;;;4.15;;
50363;SDS011;36272;59.400;17.982;2023-11-19T12:04:39;7.25;;;4.35;;
50363;SDS011;36272;59.400;17.982;2023-11-19T12:09:41;7.57;;;4.68;;
50363;SDS011;36272;59.400;17.982;2023-11-19T12:15:01;8.43;;;4.95;;
50363;SDS011;36272;59.400;17.982;2023-11-19T12:20:07;8.10;;;4.60;;
50363;SDS011;36272;59.400;17.982;2023-11-19T12:25:12;7.00;;;4.47;;
50363;SDS011;36272;59.400;17.982;2023-11-19T12:30:18;5.97;;;3.95;;
50363;SDS011;36272;59.400;17.982;2023-11-19T12:35:23;6.30;;;4.60;;
50363;SDS011;36272;59.400;17.982;2023-11-19T12:40:25;7.97;;;4.20;;
50363;SDS011;36272;59.400;17.982;2023-11-19T12:45:36;7.57;;;4.53;;
50363;SDS011;36272;59.400;17.982;2023-11-19T12:55:52;9.73;;;4.28;;
50363;SDS011;36272;59.400;17.982;2023-11-19T13:01:04;7.35;;;4.35;;
50363;SDS011;36272;59.400;17.982;2023-11-19T13:06:07;9.68;;;4.28;;
50363;SDS011;36272;59.400;17.982;2023-11-19T13:11:14;7.13;;;4.20;;
50363;SDS011;36272;59.400;17.982;2023-11-19T13:16:18;8.07;;;3.95;;
50363;SDS011;36272;59.400;17.982;2023-11-19T13:21:20;7.05;;;4.00;;
50363;SDS011;36272;59.400;17.982;2023-11-19T13:26:22;11.15;;;3.95;;
50363;SDS011;36272;59.400;17.982;2023-11-19T13:31:24;5.70;;;3.88;;
50363;SDS011;36272;59.400;17.982;2023-11-19T13:36:25;7.28;;;4.20;;
50363;SDS011;36272;59.400;17.982;2023-11-19T13:41:27;8.55;;;4.38;;
50363;SDS011;36272;59.400;17.982;2023-11-19T13:46:29;8.55;;;4.35;;
50363;SDS011;36272;59.400;17.982;2023-11-19T13:51:31;9.52;;;4.57;;
50363;SDS011;36272;59.400;17.982;2023-11-19T13:56:32;8.10;;;4.03;;
50363;SDS011;36272;59.400;17.982;2023-11-19T14:01:36;8.93;;;4.20;;
50363;SDS011;36272;59.400;17.982;2023-11-19T14:06:40;9.93;;;4.53;;
50363;SDS011;36272;59.400;17.982;2023-11-19T14:11:42;8.82;;;4.40;;
50363;SDS011;36272;59.400;17.982;2023-11-19T14:16:44;6.78;;;4.55;;
50363;SDS011;36272;59.400;17.982;2023-11-19T14:21:45;7.55;;;4.40;;
50363;SDS011;36272;59.400;17.982;2023-11-19T14:26:50;7.70;;;4.47;;
50363;SDS011;36272;59.400;17.982;2023-11-19T14:31:52;7.05;;;4.22;;
50363;SDS011;36272;59.400;17.982;2023-11-19T14:36:55;8.55;;;4.40;;
50363;SDS011;36272;59.400;17.982;2023-11-19T14:41:57;9.85;;;4.50;;
50363;SDS011;36272;59.400;17.982;2023-11-19T14:47:02;8.20;;;4.95;;
50363;SDS011;36272;59.400;17.982;2023-11-19T14:52:04;8.23;;;4.60;;
50363;SDS011;36272;59.400;17.982;2023-11-19T14:57:06;9.68;;;5.00;;
50363;SDS011;36272;59.400;17.982;2023-11-19T15:02:10;7.20;;;4.90;;
50363;SDS011;36272;59.400;17.982;2023-11-19T15:07:12;8.13;;;4.95;;
50363;SDS011;36272;59.400;17.982;2023-11-19T15:12:14;10.40;;;5.57;;
50363;SDS011;36272;59.400;17.982;2023-11-19T15:24:01;9.77;;;5.45;;
50363;SDS011;36272;59.400;17.982;2023-11-19T15:35:44;9.60;;;6.13;;
50363;SDS011;36272;59.400;17.982;2023-11-19T15:40:51;14.68;;;6.18;;
50363;SDS011;36272;59.400;17.982;2023-11-19T15:46:39;9.52;;;6.40;;
50363;SDS011;36272;59.400;17.982;2023-11-19T15:51:42;12.40;;;6.25;;
50363;SDS011;36272;59.400;17.982;2023-11-19T15:56:44;12.95;;;6.47;;
50363;SDS011;36272;59.400;17.982;2023-11-19T16:01:46;13.65;;;6.80;;
50363;SDS011;36272;59.400;17.982;2023-11-19T16:06:48;12.75;;;6.25;;
50363;SDS011;36272;59.400;17.982;2023-11-19T16:11:50;17.58;;;6.97;;
50363;SDS011;36272;59.400;17.982;2023-11-19T16:16:51;14.77;;;7.00;;
50363;SDS011;36272;59.400;17.982;2023-11-19T16:21:54;11.75;;;6.65;;
50363;SDS011;36272;59.400;17.982;2023-11-19T16:26:55;11.05;;;6.32;;
50363;SDS011;36272;59.400;17.982;2023-11-19T16:31:57;14.40;;;7.65;;
50363;SDS011;36272;59.400;17.982;2023-11-19T16:36:59;14.27;;;8.15;;
50363;SDS011;36272;59.400;17.982;2023-11-19T16:42:00;14.05;;;6.60;;
50363;SDS011;36272;59.400;17.982;2023-11-19T16:47:02;9.55;;;6.13;;
50363;SDS011;36272;59.400;17.982;2023-11-19T16:52:04;10.98;;;7.10;;
50363;SDS011;36272;59.400;17.982;2023-11-19T16:57:06;13.20;;;6.45;;
50363;SDS011;36272;59.400;17.982;2023-11-19T17:02:08;10.85;;;6.80;;
50363;SDS011;36272;59.400;17.982;2023-11-19T17:07:15;9.55;;;6.28;;
50363;SDS011;36272;59.400;17.982;2023-11-19T17:12:18;12.25;;;6.80;;
50363;SDS011;36272;59.400;17.982;2023-11-19T17:17:19;12.40;;;6.95;;
50363;SDS011;36272;59.400;17.982;2023-11-19T17:22:21;11.73;;;6.85;;
50363;SDS011;36272;59.400;17.982;2023-11-19T17:27:22;11.30;;;6.95;;
50363;SDS011;36272;59.400;17.982;2023-11-19T17:32:25;12.75;;;7.03;;
50363;SDS011;36272;59.400;17.982;2023-11-19T17:37:26;11.20;;;6.43;;
50363;SDS011;36272;59.400;17.982;2023-11-19T17:42:28;11.55;;;6.20;;
50363;SDS011;36272;59.400;17.982;2023-11-19T17:47:30;11.20;;;7.07;;
50363;SDS011;36272;59.400;17.982;2023-11-19T17:52:32;10.95;;;6.97;;
50363;SDS011;36272;59.400;17.982;2023-11-19T17:57:33;11.77;;;6.70;;
50363;SDS011;36272;59.400;17.982;2023-11-19T18:02:39;11.73;;;7.07;;
50363;SDS011;36272;59.400;17.982;2023-11-19T18:07:49;12.02;;;6.85;;
50363;SDS011;36272;59.400;17.982;2023-11-19T18:12:50;14.57;;;7.57;;
50363;SDS011;36272;59.400;17.982;2023-11-19T18:17:52;13.48;;;7.65;;
50363;SDS011;36272;59.400;17.982;2023-11-19T18:22:54;12.13;;;6.35;;
50363;SDS011;36272;59.400;17.982;2023-11-19T18:27:56;11.27;;;7.03;;
50363;SDS011;36272;59.400;17.982;2023-11-19T18:32:57;10.80;;;6.82;;
50363;SDS011;36272;59.400;17.982;2023-11-19T18:37:59;11.30;;;7.22;;
50363;SDS011;36272;59.400;17.982;2023-11-19T18:43:00;10.05;;;6.43;;
50363;SDS011;36272;59.400;17.982;2023-11-19T18:48:03;12.98;;;6.35;;
50363;SDS011;36272;59.400;17.982;2023-11-19T18:53:08;14.90;;;6.90;;
50363;SDS011;36272;59.400;17.982;2023-11-19T18:58:09;12.98;;;6.93;;
50363;SDS011;36272;59.400;17.982;2023-11-19T19:03:11;10.07;;;6.43;;
50363;SDS011;36272;59.400;17.982;2023-11-19T19:08:14;10.15;;;6.05;;
50363;SDS011;36272;59.400;17.982;2023-11-19T19:13:16;13.40;;;6.53;;
50363;SDS011;36272;59.400;17.982;2023-11-19T19:18:18;9.85;;;6.10;;
50363;SDS011;36272;59.400;17.982;2023-11-19T19:23:21;11.77;;;6.50;;
50363;SDS011;36272;59.400;17.982;2023-11-19T19:28:23;9.25;;;6.07;;
50363;SDS011;36272;59.400;17.982;2023-11-19T19:33:24;11.25;;;6.28;;
50363;SDS011;36272;59.400;17.982;2023-11-19T19:38:26;10.52;;;6.10;;
50363;SDS011;36272;59.400;17.982;2023-11-19T19:43:27;10.05;;;6.25;;
50363;SDS011;36272;59.400;17.982;2023-11-19T19:48:29;10.65;;;6.38;;
50363;SDS011;36272;59.400;17.982;2023-11-19T19:53:31;11.65;;;6.82;;
50363;SDS011;36272;59.400;17.982;2023-11-19T19:58:32;9.52;;;6.03;;
50363;SDS011;36272;59.400;17.982;2023-11-19T20:03:34;11.75;;;6.57;;
50363;SDS011;36272;59.400;17.982;2023-11-19T20:08:39;11.83;;;6.63;;
50363;SDS011;36272;59.400;17.982;2023-11-19T20:13:41;14.07;;;6.63;;
50363;SDS011;36272;59.400;17.982;2023-11-19T20:18:43;13.25;;;7.35;;
50363;SDS011;36272;59.400;17.982;2023-11-19T20:23:44;11.40;;;7.35;;
50363;SDS011;36272;59.400;17.982;2023-11-19T20:28:46;13.35;;;7.22;;
50363;SDS011;36272;59.400;17.982;2023-11-19T20:33:48;13.38;;;7.78;;
50363;SDS011;36272;59.400;17.982;2023-11-19T20:38:50;12.25;;;7.60;;
50363;SDS011;36272;59.400;17.982;2023-11-19T20:43:54;13.43;;;7.83;;
50363;SDS011;36272;59.400;17.982;2023-11-19T20:48:56;14.30;;;8.02;;
50363;SDS011;36272;59.400;17.982;2023-11-19T20:53:58;12.05;;;7.53;;
50363;SDS011;36272;59.400;17.982;2023-11-19T20:59:01;14.30;;;7.82;;
50363;SDS011;36272;59.400;17.982;2023-11-19T21:04:02;13.25;;;7.93;;
50363;SDS011;36272;59.400;17.982;2023-11-19T21:09:04;13.38;;;7.97;;
50363;SDS011;36272;59.400;17.982;2023-11-19T21:14:06;13.13;;;8.43;;
50363;SDS011;36272;59.400;17.982;2023-11-19T21:19:08;14.00;;;8.20;;
50363;SDS011;36272;59.400;17.982;2023-11-19T21:24:09;12.77;;;8.27;;
50363;SDS011;36272;59.400;17.982;2023-11-19T21:29:12;14.43;;;8.18;;
50363;SDS011;36272;59.400;17.982;2023-11-19T21:34:14;14.90;;;7.97;;
50363;SDS011;36272;59.400;17.982;2023-11-19T21:39:16;14.50;;;8.30;;
50363;SDS011;36272;59.400;17.982;2023-11-19T21:44:17;12.70;;;8.05;;
50363;SDS011;36272;59.400;17.982;2023-11-19T21:49:19;15.25;;;8.60;;
50363;SDS011;36272;59.400;17.982;2023-11-19T21:54:20;16.23;;;9.18;;
50363;SDS011;36272;59.400;17.982;2023-11-19T21:59:23;16.05;;;9.48;;
50363;SDS011;36272;59.400;17.982;2023-11-19T22:04:24;15.27;;;8.35;;
50363;SDS011;36272;59.400;17.982;2023-11-19T22:09:29;14.80;;;8.87;;
50363;SDS011;36272;59.400;17.982;2023-11-19T22:14:31;15.63;;;9.25;;
50363;SDS011;36272;59.400;17.982;2023-11-19T22:19:36;16.67;;;9.95;;
50363;SDS011;36272;59.400;17.982;2023-11-19T22:24:38;18.38;;;10.05;;
50363;SDS011;36272;59.400;17.982;2023-11-19T22:29:39;20.08;;;9.73;;
50363;SDS011;36272;59.400;17.982;2023-11-19T22:34:44;15.23;;;9.52;;
50363;SDS011;36272;59.400;17.982;2023-11-19T22:39:46;17.60;;;10.05;;
50363;SDS011;36272;59.400;17.982;2023-11-19T22:44:47;19.17;;;9.25;;
50363;SDS011;36272;59.400;17.982;2023-11-19T22:49:49;19.20;;;10.38;;
50363;SDS011;36272;59.400;17.982;2023-11-19T22:54:53;15.52;;;9.02;;
50363;SDS011;36272;59.400;17.982;2023-11-19T22:59:56;15.32;;;9.15;;
50363;SDS011;36272;59.400;17.982;2023-11-19T23:04:58;15.50;;;9.13;;
50363;SDS011;36272;59.400;17.982;2023-11-19T23:10:00;15.30;;;9.02;;
50363;SDS011;36272;59.400;17.982;2023-11-19T23:15:02;14.50;;;9.15;;
50363;SDS011;36272;59.400;17.982;2023-11-19T23:20:08;19.10;;;9.55;;
50363;SDS011;36272;59.400;17.982;2023-11-19T23:25:14;16.83;;;9.18;;
50363;SDS011;36272;59.400;17.982;2023-11-19T23:30:16;16.67;;;9.27;;
50363;SDS011;36272;59.400;17.982;2023-11-19T23:35:17;18.48;;;9.80;;
50363;SDS011;36272;59.400;17.982;2023-11-19T23:40:19;16.55;;;9.77;;
50363;SDS011;36272;59.400;17.982;2023-11-19T23:45:21;16.02;;;8.95;;
50363;SDS011;36272;59.400;17.982;2023-11-19T23:50:22;17.63;;;9.75;;
50363;SDS011;36272;59.400;17.982;2023-11-19T23:55:24;18.08;;;10.32;;
